Time;durP1;ratioP1;P1;durP2;ratioP2;P2;SDS_P1;SDS_P2;PMS_P1;PMS_P2;Temp;Humidity;BMP_temperature;BMP_pressure;BME280_temperature;BME280_humidity;BME280_pressure;Samples;Min_cycle;Max_cycle;Signal;HPM_P1;HPM_P2
2023/05/10 00:01:46;;;;;;;2.70;2.60;;;14.00;99.90;;;;;;5000722;28;20221;-78
2023/05/10 00:04:13;;;;;;;2.70;2.60;;;14.00;99.90;;;;;;5000913;28;20242;-78
2023/05/10 00:06:40;;;;;;;4.67;4.43;;;14.00;99.90;;;;;;4982643;28;20233;-78
2023/05/10 00:09:06;;;;;;;6.47;6.07;;;14.00;99.90;;;;;;4999967;28;20197;-77
2023/05/10 00:11:35;;;;;;;11.07;10.47;;;14.10;99.90;;;;;;5000528;28;20204;-77
2023/05/10 00:14:01;;;;;;;3.93;3.70;;;14.10;99.90;;;;;;4982915;28;20230;-77
2023/05/10 00:16:28;;;;;;;5.73;5.43;;;14.00;99.90;;;;;;5000568;28;20618;-77
2023/05/10 00:18:55;;;;;;;2.80;2.60;;;14.00;99.90;;;;;;4999657;28;20216;-77
2023/05/10 00:21:22;;;;;;;11.67;11.07;;;14.00;99.90;;;;;;5000421;28;20218;-77
2023/05/10 00:23:49;;;;;;;10.80;10.10;;;14.00;99.90;;;;;;4982880;28;20222;-77
2023/05/10 00:26:16;;;;;;;8.30;7.70;;;14.00;99.90;;;;;;4983620;28;20207;-77
2023/05/10 00:28:46;;;;;;;8.43;8.00;;;13.90;99.90;;;;;;4983102;28;20195;-78
2023/05/10 00:31:14;;;;;;;8.20;7.70;;;13.90;99.90;;;;;;4983736;28;20205;-77
2023/05/10 00:33:41;;;;;;;9.27;8.77;;;13.90;99.90;;;;;;4983213;28;20217;-77
2023/05/10 00:36:09;;;;;;;10.80;10.20;;;13.90;99.90;;;;;;4983928;28;20743;-77
2023/05/10 00:38:36;;;;;;;8.60;8.10;;;13.90;99.90;;;;;;4984885;28;20269;-78
2023/05/10 00:41:03;;;;;;;11.97;11.37;;;13.90;99.90;;;;;;5002510;28;20195;-78
2023/05/10 00:43:32;;;;;;;7.23;6.77;;;13.90;99.90;;;;;;4985293;28;20222;-78
2023/05/10 00:46:01;;;;;;;8.80;8.30;;;13.90;99.90;;;;;;4984711;28;20198;-77
2023/05/10 00:48:29;;;;;;;3.33;3.13;;;13.90;99.90;;;;;;4984806;28;20574;-77
2023/05/10 00:50:56;;;;;;;2.70;2.50;;;13.80;99.90;;;;;;4984687;28;20694;-78
2023/05/10 00:53:23;;;;;;;10.03;9.53;;;13.80;99.90;;;;;;5001179;28;20216;-77
2023/05/10 00:55:50;;;;;;;10.50;10.00;;;13.80;99.90;;;;;;4984697;28;20674;-78
2023/05/10 00:58:18;;;;;;;8.20;7.80;;;13.80;99.90;;;;;;4985267;28;20585;-78
2023/05/10 01:00:48;;;;;;;3.33;2.73;;;13.70;99.90;;;;;;5001618;28;20205;-78
2023/05/10 01:03:16;;;;;;;2.70;2.50;;;13.70;99.90;;;;;;5001854;28;20214;-77
2023/05/10 01:05:43;;;;;;;2.60;2.50;;;13.60;99.90;;;;;;4983646;28;20197;-78
2023/05/10 01:08:10;;;;;;;2.50;2.30;;;13.70;99.90;;;;;;5000209;28;20287;-78
2023/05/10 01:10:37;;;;;;;2.40;2.30;;;13.70;99.90;;;;;;4983179;28;20199;-78
2023/05/10 01:13:04;;;;;;;2.60;2.40;;;13.70;99.90;;;;;;4984424;28;20235;-77
2023/05/10 01:15:31;;;;;;;2.70;2.37;;;13.70;99.90;;;;;;5004449;28;20220;-77
2023/05/10 01:17:58;;;;;;;2.40;2.30;;;13.70;99.90;;;;;;4986167;28;20221;-77
2023/05/10 01:20:31;;;;;;;2.53;2.43;;;13.60;99.90;;;;;;4987052;28;20201;-77
2023/05/10 01:23:21;;;;;;;2.40;2.30;;;13.60;99.90;;;;;;4986032;28;20214;-77
2023/05/10 01:26:08;;;;;;;2.40;2.30;;;13.60;99.90;;;;;;4987115;28;20205;-77
2023/05/10 01:29:10;;;;;;;2.70;2.60;;;13.60;99.90;;;;;;4986129;28;20249;-77
2023/05/10 01:32:09;;;;;;;2.50;2.40;;;13.70;99.90;;;;;;5000767;28;20661;-78
2023/05/10 01:34:42;;;;;;;2.60;2.50;;;13.60;99.90;;;;;;4986641;28;20221;-77
2023/05/10 01:37:14;;;;;;;2.43;2.30;;;13.60;99.90;;;;;;4987574;28;20232;-77
2023/05/10 01:39:46;;;;;;;5.70;5.30;;;13.60;99.90;;;;;;4999721;28;20228;-77
2023/05/10 01:42:20;;;;;;;2.30;2.20;;;13.60;99.90;;;;;;5003353;28;20245;-77
2023/05/10 01:44:55;;;;;;;2.50;2.40;;;13.60;99.90;;;;;;4998990;28;20222;-77
2023/05/10 01:47:36;;;;;;;2.40;2.30;;;13.60;99.90;;;;;;4994997;28;20295;-77
2023/05/10 01:50:07;;;;;;;2.40;2.30;;;13.60;99.90;;;;;;4988701;28;20225;-78
2023/05/10 01:52:39;;;;;;;2.30;2.20;;;13.60;99.90;;;;;;4985609;28;20260;-77
2023/05/10 01:55:12;;;;;;;2.47;2.37;;;13.60;99.90;;;;;;5004117;28;20297;-77
2023/05/10 01:57:40;;;;;;;2.43;2.33;;;13.60;99.90;;;;;;4986159;28;20198;-77
2023/05/10 02:00:09;;;;;;;2.63;2.43;;;13.60;99.90;;;;;;4986078;28;20241;-77
2023/05/10 02:02:47;;;;;;;2.50;2.40;;;13.50;99.90;;;;;;5003328;28;20209;-77
2023/05/10 02:05:15;;;;;;;2.70;2.60;;;13.50;99.90;;;;;;5003611;28;20198;-77
2023/05/10 02:07:42;;;;;;;2.40;2.30;;;13.50;99.90;;;;;;4986277;28;20285;-77
2023/05/10 02:10:11;;;;;;;2.40;2.30;;;13.50;99.90;;;;;;4986994;28;20221;-77
2023/05/10 02:12:42;;;;;;;2.33;2.23;;;13.40;99.90;;;;;;4985319;28;20228;-78
2023/05/10 02:15:11;;;;;;;2.97;2.83;;;13.40;99.90;;;;;;4986466;28;20209;-77
2023/05/10 02:17:39;;;;;;;2.50;2.40;;;13.40;99.90;;;;;;5003608;28;20417;-77
2023/05/10 02:20:09;;;;;;;2.20;2.10;;;13.30;99.90;;;;;;4985508;28;20279;-78
2023/05/10 02:22:37;;;;;;;4.93;4.73;;;13.30;99.90;;;;;;4984721;28;20662;-77
2023/05/10 02:25:05;;;;;;;2.47;2.37;;;13.30;99.90;;;;;;5001974;28;20190;-77
2023/05/10 02:27:33;;;;;;;6.67;6.37;;;13.30;99.90;;;;;;4985733;28;20544;-77
2023/05/10 02:30:00;;;;;;;10.73;10.13;;;13.30;99.90;;;;;;4985646;28;20201;-77
2023/05/10 02:32:28;;;;;;;10.30;9.80;;;13.30;99.90;;;;;;4985219;28;20215;-76
2023/05/10 02:34:58;;;;;;;11.53;10.83;;;13.30;99.90;;;;;;4985477;28;20227;-78
2023/05/10 02:37:27;;;;;;;11.20;10.60;;;13.30;99.90;;;;;;4984777;28;20568;-78
2023/05/10 02:39:56;;;;;;;9.47;8.97;;;13.30;99.90;;;;;;4985699;28;20229;-77
2023/05/10 02:42:27;;;;;;;9.10;8.50;;;13.20;99.90;;;;;;4981707;28;20193;-78
2023/05/10 02:44:57;;;;;;;9.20;8.70;;;13.20;99.90;;;;;;4991375;28;20325;-78
2023/05/10 02:47:24;;;;;;;8.77;8.27;;;13.20;99.90;;;;;;4983556;28;20201;-77
2023/05/10 02:49:51;;;;;;;8.50;8.10;;;13.20;99.90;;;;;;4984335;28;20198;-80
2023/05/10 02:52:25;;;;;;;8.87;8.37;;;13.10;99.90;;;;;;4975729;28;20272;-80
2023/05/10 02:54:56;;;;;;;9.17;8.47;;;13.10;99.90;;;;;;4991583;28;20283;-79
2023/05/10 02:57:27;;;;;;;10.73;10.10;;;13.10;99.90;;;;;;4991438;28;20205;-80
2023/05/10 02:59:55;;;;;;;10.97;10.37;;;13.00;99.90;;;;;;4998480;28;20276;-80
2023/05/10 03:02:22;;;;;;;13.43;12.63;;;13.00;99.90;;;;;;4997753;28;20204;-79
2023/05/10 03:04:49;;;;;;;10.63;10.03;;;13.00;99.90;;;;;;4976284;28;20221;-79
2023/05/10 03:07:19;;;;;;;11.60;11.00;;;13.00;99.90;;;;;;4982114;28;20256;-80
2023/05/10 03:09:49;;;;;;;11.40;10.80;;;12.90;99.90;;;;;;4995889;28;20304;-81
2023/05/10 03:12:27;;;;;;;11.77;11.17;;;12.90;99.90;;;;;;4979493;28;20288;-79
2023/05/10 03:15:01;;;;;;;11.63;11.03;;;12.90;99.90;;;;;;4974470;28;20237;-80
2023/05/10 03:17:36;;;;;;;11.20;10.60;;;12.90;99.90;;;;;;4984045;28;20288;-79
2023/05/10 03:20:07;;;;;;;11.53;10.93;;;12.90;99.90;;;;;;4979936;28;20220;-81
2023/05/10 03:22:38;;;;;;;11.37;10.67;;;12.90;99.90;;;;;;4978150;28;20197;-79
2023/05/10 03:25:08;;;;;;;11.00;10.40;;;13.00;99.90;;;;;;4972899;28;20268;-80
2023/05/10 03:27:40;;;;;;;11.37;10.77;;;13.00;99.90;;;;;;4991909;28;20283;-81
2023/05/10 03:30:11;;;;;;;11.67;11.07;;;12.90;99.90;;;;;;4968540;28;20201;-80
2023/05/10 03:32:38;;;;;;;11.77;11.17;;;13.00;99.90;;;;;;4976960;28;20204;-84
2023/05/10 03:35:08;;;;;;;11.80;11.20;;;13.00;99.90;;;;;;4975982;28;20194;-79
2023/05/10 03:37:35;;;;;;;12.50;11.90;;;12.90;99.90;;;;;;4976262;28;20232;-79
2023/05/10 03:40:02;;;;;;;12.10;11.50;;;12.90;99.90;;;;;;4983122;28;20212;-80
2023/05/10 03:42:31;;;;;;;12.90;12.20;;;13.00;99.90;;;;;;4976549;28;20189;-78
2023/05/10 03:44:59;;;;;;;12.50;11.90;;;13.00;99.90;;;;;;4977788;28;20801;-78
2023/05/10 03:47:26;;;;;;;9.53;9.03;;;13.00;99.90;;;;;;4976150;28;20466;-77
2023/05/10 03:49:53;;;;;;;9.57;9.03;;;13.00;99.90;;;;;;4970997;28;20525;-78
2023/05/10 03:52:19;;;;;;;8.47;7.97;;;13.00;99.90;;;;;;4994532;28;20276;-78
2023/05/10 03:54:46;;;;;;;8.20;7.80;;;13.00;99.90;;;;;;4992699;28;20248;-78
2023/05/10 03:57:13;;;;;;;8.30;7.90;;;13.00;99.90;;;;;;4992114;28;20662;-79
2023/05/10 03:59:40;;;;;;;8.80;8.30;;;13.00;99.90;;;;;;4974905;28;20577;-78
2023/05/10 04:02:08;;;;;;;8.87;8.37;;;13.00;99.90;;;;;;4974826;28;20212;-79
2023/05/10 04:04:36;;;;;;;12.93;12.27;;;13.00;99.90;;;;;;4974437;28;20220;-78
2023/05/10 04:07:04;;;;;;;7.07;6.50;;;13.00;99.90;;;;;;4975415;28;20546;-78
2023/05/10 04:09:31;;;;;;;13.70;13.00;;;13.00;99.90;;;;;;4974344;28;20194;-79
2023/05/10 04:11:59;;;;;;;14.20;13.40;;;13.00;99.90;;;;;;4991741;28;20272;-76
2023/05/10 04:14:26;;;;;;;14.80;13.80;;;13.00;99.90;;;;;;4992354;28;20725;-78
2023/05/10 04:16:52;;;;;;;11.67;10.97;;;13.10;99.90;;;;;;4992253;28;20228;-79
2023/05/10 04:19:21;;;;;;;13.73;12.93;;;13.00;99.90;;;;;;4991729;28;20210;-78
2023/05/10 04:21:47;;;;;;;6.83;6.33;;;13.00;99.90;;;;;;4991720;28;20685;-78
2023/05/10 04:24:14;;;;;;;5.60;5.30;;;13.10;99.90;;;;;;4974543;28;20780;-79
2023/05/10 04:26:41;;;;;;;7.27;6.87;;;13.00;99.90;;;;;;4974743;28;20205;-78
2023/05/10 04:29:08;;;;;;;7.43;6.90;;;13.10;99.90;;;;;;4991638;28;20193;-78
2023/05/10 04:31:36;;;;;;;4.00;3.70;;;13.10;99.90;;;;;;4991874;28;20281;-78
2023/05/10 04:34:02;;;;;;;14.73;13.83;;;13.10;99.90;;;;;;4992024;28;20217;-79
2023/05/10 04:36:32;;;;;;;3.40;3.30;;;13.10;99.90;;;;;;4992012;28;20189;-77
2023/05/10 04:38:59;;;;;;;9.67;9.17;;;13.20;99.90;;;;;;4991806;28;20220;-78
2023/05/10 04:41:26;;;;;;;9.77;9.23;;;13.10;99.90;;;;;;4973947;28;20205;-78
2023/05/10 04:43:52;;;;;;;3.90;3.60;;;13.20;99.90;;;;;;4991589;28;20273;-78
2023/05/10 04:46:19;;;;;;;3.70;3.50;;;13.20;99.90;;;;;;4979031;28;20288;-78
2023/05/10 04:48:46;;;;;;;3.60;3.40;;;13.20;99.90;;;;;;4974323;28;20205;-80
2023/05/10 04:51:13;;;;;;;3.30;3.00;;;13.20;99.90;;;;;;4988870;28;20547;-77
2023/05/10 04:53:41;;;;;;;3.40;3.20;;;13.20;99.90;;;;;;4974048;28;20659;-78
2023/05/10 04:56:08;;;;;;;3.90;3.70;;;13.20;99.90;;;;;;4974376;28;20195;-78
2023/05/10 04:58:35;;;;;;;3.57;3.37;;;13.30;99.90;;;;;;4974482;28;20202;-79
2023/05/10 05:01:06;;;;;;;3.30;3.20;;;13.30;99.90;;;;;;4992699;28;20221;-79
2023/05/10 05:03:33;;;;;;;4.50;4.30;;;13.40;99.90;;;;;;4974542;28;20221;-79
2023/05/10 05:06:00;;;;;;;5.40;4.90;;;13.40;99.90;;;;;;4974251;28;20610;-80
2023/05/10 05:08:27;;;;;;;3.47;3.27;;;13.40;99.90;;;;;;4973540;28;20201;-80
2023/05/10 05:10:55;;;;;;;3.73;3.40;;;13.50;99.90;;;;;;4980583;28;20221;-80
2023/05/10 05:13:22;;;;;;;4.80;4.50;;;13.50;99.90;;;;;;4973729;28;20287;-80
2023/05/10 05:15:49;;;;;;;5.50;5.20;;;13.50;99.90;;;;;;4974506;28;20692;-81
2023/05/10 05:18:16;;;;;;;10.10;9.60;;;13.60;99.90;;;;;;4991307;28;20200;-80
2023/05/10 05:20:43;;;;;;;5.40;5.10;;;13.50;99.90;;;;;;4973906;28;20775;-79
2023/05/10 05:23:09;;;;;;;3.50;3.30;;;13.50;99.90;;;;;;4990554;28;20213;-79
2023/05/10 05:25:37;;;;;;;3.97;3.77;;;13.50;99.90;;;;;;4987690;28;20279;-79
2023/05/10 05:28:05;;;;;;;3.90;3.70;;;13.60;99.90;;;;;;4989735;28;20212;-81
2023/05/10 05:30:32;;;;;;;9.27;8.77;;;13.70;99.90;;;;;;4970115;28;20206;-81
2023/05/10 05:32:58;;;;;;;4.50;4.30;;;13.70;99.90;;;;;;4978452;28;20213;-80
2023/05/10 05:35:25;;;;;;;4.70;4.50;;;13.80;99.90;;;;;;4990537;28;20217;-80
2023/05/10 05:37:52;;;;;;;5.63;5.33;;;13.90;99.90;;;;;;4982274;28;20293;-81
2023/05/10 05:40:20;;;;;;;3.97;3.77;;;13.90;99.90;;;;;;4984557;28;20225;-81
2023/05/10 05:42:47;;;;;;;3.33;3.13;;;13.90;99.90;;;;;;4979538;28;20206;-81
2023/05/10 05:45:15;;;;;;;3.83;3.53;;;14.00;99.90;;;;;;4985978;28;20199;-80
2023/05/10 05:47:42;;;;;;;3.80;3.50;;;14.00;99.90;;;;;;4973857;28;20269;-82
2023/05/10 05:50:10;;;;;;;3.67;3.43;;;14.00;99.90;;;;;;4992458;28;20254;-81
2023/05/10 05:52:36;;;;;;;3.50;3.30;;;14.00;99.90;;;;;;4991058;28;20743;-80
2023/05/10 05:55:04;;;;;;;3.30;3.10;;;14.00;99.90;;;;;;4993575;28;20229;-84
2023/05/10 05:57:31;;;;;;;3.50;3.30;;;14.00;99.90;;;;;;4975987;28;20190;-81
2023/05/10 05:59:58;;;;;;;3.60;3.40;;;14.00;99.90;;;;;;4980514;28;20566;-81
2023/05/10 06:02:26;;;;;;;3.43;3.23;;;14.00;99.90;;;;;;4988940;28;20203;-81
2023/05/10 06:04:52;;;;;;;3.50;3.20;;;13.90;99.90;;;;;;4997121;28;20221;-81
2023/05/10 06:07:20;;;;;;;3.40;3.20;;;13.90;99.90;;;;;;4984253;28;20686;-80
2023/05/10 06:09:46;;;;;;;3.20;3.00;;;13.80;99.90;;;;;;4995044;28;20612;-78
2023/05/10 06:12:13;;;;;;;3.00;2.90;;;13.80;99.90;;;;;;4995400;28;20247;-81
2023/05/10 06:14:40;;;;;;;3.40;3.20;;;13.80;99.90;;;;;;4995452;28;20690;-80
2023/05/10 06:17:07;;;;;;;3.63;3.33;;;13.90;99.90;;;;;;4994767;28;20240;-79
2023/05/10 06:19:36;;;;;;;3.57;3.37;;;13.90;99.90;;;;;;4970920;28;20218;-79
2023/05/10 06:22:03;;;;;;;3.40;3.20;;;14.00;99.90;;;;;;4989678;28;20199;-77
2023/05/10 06:24:30;;;;;;;3.30;3.10;;;14.00;99.90;;;;;;4971268;28;20285;-78
2023/05/10 06:26:59;;;;;;;3.33;3.10;;;14.10;99.90;;;;;;4994639;28;20255;-81
2023/05/10 06:29:26;;;;;;;3.30;3.00;;;14.10;99.90;;;;;;4990662;28;20699;-80
2023/05/10 06:31:54;;;;;;;3.30;3.10;;;14.20;99.90;;;;;;4987343;28;20209;-80
2023/05/10 06:34:21;;;;;;;4.37;3.33;;;14.20;99.90;;;;;;4994622;28;20218;-80
2023/05/10 06:36:49;;;;;;;3.70;3.50;;;14.20;99.90;;;;;;4988223;28;20237;-79
2023/05/10 06:39:16;;;;;;;3.80;3.30;;;14.30;99.90;;;;;;4986159;28;20214;-79
2023/05/10 06:41:42;;;;;;;3.20;3.00;;;14.40;99.90;;;;;;4989274;28;20215;-79
2023/05/10 06:44:09;;;;;;;3.37;3.10;;;14.40;99.90;;;;;;4994734;28;20640;-80
2023/05/10 06:46:36;;;;;;;3.13;2.97;;;14.50;99.90;;;;;;4976597;28;20199;-78
2023/05/10 06:49:03;;;;;;;3.43;3.23;;;14.60;99.90;;;;;;4987966;28;20670;-80
2023/05/10 06:51:29;;;;;;;3.30;3.10;;;14.70;99.90;;;;;;4976095;28;20665;-78
2023/05/10 06:53:58;;;;;;;3.33;3.13;;;14.80;99.90;;;;;;4994131;28;20215;-80
2023/05/10 06:56:24;;;;;;;3.37;3.03;;;15.00;99.90;;;;;;5002628;28;20209;-78
2023/05/10 06:58:51;;;;;;;3.00;2.80;;;15.10;99.90;;;;;;4999860;28;20206;-77
2023/05/10 07:01:18;;;;;;;2.87;2.73;;;15.30;99.90;;;;;;4986111;28;20216;-75
2023/05/10 07:03:45;;;;;;;2.80;2.70;;;15.40;99.90;;;;;;4993657;28;20283;-77
2023/05/10 07:06:11;;;;;;;3.20;3.00;;;15.60;99.90;;;;;;4999122;28;20195;-78
2023/05/10 07:08:38;;;;;;;6.87;6.47;;;15.70;99.90;;;;;;5005454;28;20200;-82
2023/05/10 07:11:07;;;;;;;4.80;3.03;;;15.80;99.90;;;;;;5000143;28;20207;-82
2023/05/10 07:13:36;;;;;;;3.23;3.03;;;16.00;99.90;;;;;;4993510;28;20238;-81
2023/05/10 07:16:04;;;;;;;4.67;4.37;;;16.10;99.90;;;;;;4982634;28;20777;-79
2023/05/10 07:18:30;;;;;;;3.93;3.73;;;16.00;99.90;;;;;;4986505;28;20611;-78
2023/05/10 07:20:58;;;;;;;3.00;2.80;;;16.00;99.90;;;;;;4994381;28;20217;-79
2023/05/10 07:23:25;;;;;;;2.80;2.50;;;15.90;99.90;;;;;;4976574;28;20225;-79
2023/05/10 07:25:52;;;;;;;2.60;2.50;;;15.80;99.90;;;;;;4977294;28;20269;-79
2023/05/10 07:28:21;;;;;;;5.80;5.50;;;15.80;99.90;;;;;;4982682;28;20201;-79
2023/05/10 07:30:47;;;;;;;4.60;4.30;;;15.70;99.90;;;;;;4977497;28;20246;-78
2023/05/10 07:33:15;;;;;;;3.90;3.63;;;15.60;99.90;;;;;;4994212;28;20221;-80
2023/05/10 07:35:42;;;;;;;4.80;4.50;;;15.50;99.90;;;;;;4994665;28;20205;-78
2023/05/10 07:38:10;;;;;;;7.07;6.67;;;15.40;99.90;;;;;;4978013;28;20251;-80
2023/05/10 07:40:38;;;;;;;2.70;2.60;;;15.40;99.90;;;;;;4994695;28;20291;-78
2023/05/10 07:43:04;;;;;;;3.00;2.80;;;15.30;99.90;;;;;;4994595;28;20328;-79
2023/05/10 07:45:33;;;;;;;3.20;3.00;;;15.30;99.90;;;;;;4995364;28;20195;-78
2023/05/10 07:48:00;;;;;;;4.83;4.53;;;15.30;99.90;;;;;;4994359;28;20246;-78
2023/05/10 07:50:27;;;;;;;3.73;3.43;;;15.30;99.90;;;;;;4995112;28;20199;-79
2023/05/10 07:52:54;;;;;;;4.23;4.03;;;15.30;99.90;;;;;;4998030;28;20209;-79
2023/05/10 07:55:21;;;;;;;4.10;3.90;;;15.40;99.90;;;;;;4979699;28;20200;-80
2023/05/10 07:57:48;;;;;;;2.93;2.73;;;15.50;99.90;;;;;;4978746;28;20216;-78
2023/05/10 08:00:18;;;;;;;5.10;4.80;;;15.50;99.90;;;;;;4998008;28;20240;-78
2023/05/10 08:02:46;;;;;;;6.00;5.63;;;15.50;99.90;;;;;;4989339;28;20223;-79
2023/05/10 08:05:14;;;;;;;3.57;3.37;;;15.50;99.90;;;;;;5002671;28;20256;-79
2023/05/10 08:07:41;;;;;;;2.50;2.40;;;15.50;99.90;;;;;;4988906;28;20215;-78
2023/05/10 08:10:09;;;;;;;2.50;2.40;;;15.50;99.90;;;;;;4990105;28;20204;-79
2023/05/10 08:12:36;;;;;;;2.70;2.60;;;15.60;99.90;;;;;;4996562;28;20224;-79
2023/05/10 08:15:03;;;;;;;2.77;2.67;;;15.60;99.90;;;;;;4980498;28;20608;-79
2023/05/10 08:17:30;;;;;;;6.60;6.20;;;15.60;99.90;;;;;;5002191;28;20270;-78
2023/05/10 08:19:58;;;;;;;2.50;2.40;;;15.70;99.90;;;;;;4995841;28;20212;-79
2023/05/10 08:22:25;;;;;;;3.20;3.00;;;15.80;99.90;;;;;;4990955;28;20201;-78
2023/05/10 08:24:52;;;;;;;3.23;3.10;;;15.90;99.90;;;;;;4990875;28;20221;-80
2023/05/10 08:27:19;;;;;;;4.07;3.80;;;16.10;99.90;;;;;;4991439;28;20201;-79
2023/05/10 08:29:46;;;;;;;4.20;4.00;;;16.20;99.90;;;;;;4989954;28;20267;-79
2023/05/10 08:32:13;;;;;;;3.13;3.00;;;16.30;99.90;;;;;;4999348;28;20217;-79
2023/05/10 08:34:39;;;;;;;2.70;2.60;;;16.50;99.90;;;;;;4996659;28;20221;-79
2023/05/10 08:37:08;;;;;;;3.00;2.80;;;16.60;99.90;;;;;;4991226;28;20197;-78
2023/05/10 08:39:35;;;;;;;5.93;5.63;;;16.70;99.90;;;;;;4992659;28;20661;-79
2023/05/10 08:42:05;;;;;;;4.40;4.00;;;16.90;99.90;;;;;;4977132;28;20284;-78
2023/05/10 08:44:33;;;;;;;6.90;6.50;;;17.00;99.90;;;;;;4993115;28;20242;-79
2023/05/10 08:47:03;;;;;;;5.60;5.20;;;17.20;99.90;;;;;;4986925;28;20204;-79
2023/05/10 08:49:32;;;;;;;6.77;6.37;;;17.30;99.90;;;;;;4987062;28;20693;-79
2023/05/10 08:52:00;;;;;;;4.10;3.80;;;17.50;99.90;;;;;;4980728;28;20688;-78
2023/05/10 08:54:29;;;;;;;3.07;2.93;;;17.80;99.90;;;;;;4996338;28;20214;-78
2023/05/10 08:56:57;;;;;;;3.57;3.37;;;17.90;99.90;;;;;;4986538;28;20206;-79
2023/05/10 08:59:24;;;;;;;4.67;4.47;;;18.00;99.90;;;;;;4986983;28;20207;-79
2023/05/10 09:01:53;;;;;;;5.50;5.20;;;18.00;99.90;;;;;;4975842;28;20323;-80
2023/05/10 09:04:21;;;;;;;7.97;7.53;;;18.10;99.90;;;;;;4994328;28;20228;-79
2023/05/10 09:06:48;;;;;;;6.47;6.17;;;17.90;99.90;;;;;;4996526;28;20682;-78
2023/05/10 09:09:15;;;;;;;5.67;5.37;;;17.90;99.90;;;;;;4998063;28;20215;-78
2023/05/10 09:11:44;;;;;;;7.13;6.73;;;17.80;99.90;;;;;;4994375;28;20201;-77
2023/05/10 09:14:14;;;;;;;5.43;5.13;;;17.70;99.90;;;;;;4999618;28;20232;-78
2023/05/10 09:16:41;;;;;;;7.43;7.03;;;17.60;99.90;;;;;;4999970;28;20206;-77
2023/05/10 09:19:09;;;;;;;6.77;6.47;;;17.60;99.90;;;;;;4990735;28;20272;-77
2023/05/10 09:21:37;;;;;;;7.73;7.13;;;17.60;99.90;;;;;;5003453;28;20213;-77
2023/05/10 09:24:05;;;;;;;9.10;8.60;;;17.60;99.90;;;;;;4999380;28;20639;-78
2023/05/10 09:26:33;;;;;;;8.60;8.00;;;17.50;99.90;;;;;;5000846;28;20206;-78
2023/05/10 09:29:02;;;;;;;7.73;7.27;;;17.50;99.90;;;;;;5000190;28;20616;-78
2023/05/10 09:31:46;;;;;;;8.07;7.57;;;17.40;99.90;;;;;;5000507;28;20711;-78
2023/05/10 09:34:17;;;;;;;3.93;3.73;;;17.30;99.90;;;;;;4998889;28;20223;-78
2023/05/10 09:36:54;;;;;;;8.30;7.80;;;17.40;99.90;;;;;;5004860;28;20210;-78
2023/05/10 09:39:21;;;;;;;7.70;7.30;;;17.50;99.90;;;;;;4992611;28;20206;-77
2023/05/10 09:41:48;;;;;;;8.00;7.60;;;17.70;99.90;;;;;;5000691;28;20215;-77
2023/05/10 09:44:20;;;;;;;7.53;7.13;;;17.90;99.90;;;;;;4997763;28;20635;-78
2023/05/10 09:46:52;;;;;;;7.33;7.00;;;18.00;99.90;;;;;;5003367;28;20205;-78
2023/05/10 09:49:19;;;;;;;7.87;7.47;;;18.20;99.90;;;;;;5004276;28;20203;-78
2023/05/10 09:51:46;;;;;;;5.37;4.90;;;18.40;99.90;;;;;;4994954;28;20208;-78
2023/05/10 09:54:14;;;;;;;6.27;5.87;;;18.70;99.90;;;;;;4984981;28;20709;-77
2023/05/10 09:56:41;;;;;;;5.83;5.53;;;18.80;99.90;;;;;;4984658;28;20283;-78
2023/05/10 09:59:10;;;;;;;4.33;4.13;;;19.00;99.90;;;;;;4985213;28;20591;-78
2023/05/10 10:01:38;;;;;;;3.27;3.07;;;19.10;99.90;;;;;;5003039;28;20271;-78
2023/05/10 10:04:06;;;;;;;4.37;3.90;;;19.30;99.90;;;;;;4985429;28;20303;-78
2023/05/10 10:06:37;;;;;;;3.10;2.90;;;19.60;99.90;;;;;;4983864;28;20259;-78
2023/05/10 10:09:05;;;;;;;2.67;2.47;;;19.70;99.90;;;;;;4995182;28;20200;-78
2023/05/10 10:11:32;;;;;;;2.50;2.40;;;19.60;99.90;;;;;;5006010;28;20609;-78
2023/05/10 10:13:59;;;;;;;3.13;3.03;;;19.40;99.90;;;;;;4986860;28;20717;-78
2023/05/10 10:16:27;;;;;;;5.67;5.37;;;19.00;99.90;;;;;;5005601;28;20201;-78
2023/05/10 10:18:56;;;;;;;2.40;2.30;;;18.80;99.90;;;;;;5004633;28;20208;-79
2023/05/10 10:21:23;;;;;;;3.33;2.90;;;18.50;99.90;;;;;;4992397;28;20217;-79
2023/05/10 10:23:50;;;;;;;5.40;5.10;;;18.20;99.90;;;;;;5003419;28;20228;-79
2023/05/10 10:26:19;;;;;;;6.23;5.90;;;17.80;99.90;;;;;;5003965;28;20208;-79
2023/05/10 10:28:51;;;;;;;3.10;2.90;;;17.50;99.90;;;;;;5001932;28;20200;-81
2023/05/10 10:31:27;;;;;;;5.70;5.30;;;17.40;99.90;;;;;;4981499;28;20289;-79
2023/05/10 10:34:06;;;;;;;8.37;7.87;;;17.30;99.90;;;;;;4997443;28;20224;-78
2023/05/10 10:36:35;;;;;;;2.60;2.50;;;17.20;99.90;;;;;;4999364;28;20210;-79
2023/05/10 10:39:02;;;;;;;3.17;3.07;;;17.10;99.90;;;;;;4999713;28;20683;-79
2023/05/10 10:41:32;;;;;;;5.93;5.63;;;17.10;99.90;;;;;;4981814;28;20269;-79
2023/05/10 10:44:33;;;;;;;5.20;4.40;;;17.00;99.90;;;;;;4980129;28;20258;-79
2023/05/10 10:47:22;;;;;;;3.17;3.07;;;16.90;99.90;;;;;;4999323;28;20200;-79
2023/05/10 10:49:52;;;;;;;4.60;2.80;;;17.00;99.90;;;;;;4981829;28;20253;-78
2023/05/10 10:52:27;;;;;;;3.50;3.10;;;17.20;99.90;;;;;;4986326;28;20194;-79
2023/05/10 10:54:59;;;;;;;2.80;2.70;;;17.40;99.90;;;;;;4982651;28;20285;-79
2023/05/10 10:57:27;;;;;;;2.80;2.70;;;17.50;99.90;;;;;;4999909;28;20196;-80
2023/05/10 11:00:19;;;;;;;3.00;2.70;;;17.60;99.90;;;;;;4983442;28;20199;-79
2023/05/10 11:02:48;;;;;;;4.03;3.83;;;17.90;99.90;;;;;;4981254;28;20227;-79
2023/05/10 11:05:38;;;;;;;3.13;2.47;;;18.10;99.90;;;;;;4981349;28;20206;-79
2023/05/10 11:08:10;;;;;;;7.20;6.80;;;18.20;99.90;;;;;;4982214;28;20204;-79
2023/05/10 11:10:38;;;;;;;2.87;2.67;;;18.30;99.90;;;;;;4983392;28;20680;-80
2023/05/10 11:13:06;;;;;;;4.17;3.90;;;18.50;99.90;;;;;;4985897;28;20257;-79
2023/05/10 11:15:36;;;;;;;5.33;5.03;;;18.50;99.90;;;;;;4982364;28;20200;-80
2023/05/10 11:18:18;;;;;;;4.90;4.60;;;18.50;99.90;;;;;;4995455;28;20204;-79
2023/05/10 11:20:52;;;;;;;4.77;4.47;;;18.60;99.90;;;;;;4982032;28;20227;-79
2023/05/10 11:23:20;;;;;;;6.50;6.00;;;18.20;99.90;;;;;;5002392;28;20224;-80
2023/05/10 11:25:49;;;;;;;5.90;5.60;;;17.50;99.90;;;;;;4995951;28;20204;-80
2023/05/10 11:28:18;;;;;;;5.07;4.77;;;16.90;99.90;;;;;;4976179;28;20219;-78
2023/05/10 11:30:45;;;;;;;2.60;2.40;;;16.40;99.90;;;;;;4985249;28;20202;-80
2023/05/10 11:33:16;;;;;;;3.57;3.27;;;16.00;99.90;;;;;;4974380;28;20213;-80
2023/05/10 11:35:43;;;;;;;3.17;3.07;;;15.60;99.90;;;;;;4979820;28;20205;-80
2023/05/10 11:38:12;;;;;;;3.53;2.43;;;15.30;99.90;;;;;;4977976;28;20220;-79
2023/05/10 11:40:40;;;;;;;9.20;8.67;;;15.00;99.90;;;;;;4977344;28;20667;-80
2023/05/10 11:43:09;;;;;;;9.30;8.80;;;14.80;99.90;;;;;;4983273;28;20224;-79
2023/05/10 11:45:36;;;;;;;5.90;5.50;;;14.70;99.90;;;;;;4982313;28;20195;-80
2023/05/10 11:48:03;;;;;;;4.37;4.17;;;14.60;99.90;;;;;;4984182;28;20799;-78
2023/05/10 11:50:30;;;;;;;9.27;8.77;;;14.60;99.90;;;;;;4986136;28;20187;-78
2023/05/10 11:52:58;;;;;;;9.30;8.80;;;14.70;99.90;;;;;;5001592;28;20201;-79
2023/05/10 11:55:26;;;;;;;9.60;9.10;;;14.80;99.90;;;;;;4978666;28;20207;-80
2023/05/10 11:57:54;;;;;;;5.80;5.40;;;14.90;99.90;;;;;;4996692;28;20219;-78
2023/05/10 12:00:21;;;;;;;5.80;5.40;;;15.10;99.90;;;;;;4985897;28;20202;-79
2023/05/10 12:02:48;;;;;;;8.07;7.47;;;15.20;99.90;;;;;;4997040;28;20250;-77
2023/05/10 12:05:15;;;;;;;6.07;5.67;;;15.20;99.90;;;;;;4997899;28;20245;-80
2023/05/10 12:07:42;;;;;;;2.50;2.30;;;15.30;99.90;;;;;;4976839;28;20234;-79
2023/05/10 12:10:12;;;;;;;2.37;2.20;;;15.40;99.90;;;;;;4987746;28;20193;-80
2023/05/10 12:12:42;;;;;;;2.80;2.30;;;15.60;99.90;;;;;;4985879;28;20203;-79
2023/05/10 12:15:12;;;;;;;2.63;2.43;;;15.70;99.90;;;;;;4984119;28;20221;-79
2023/05/10 12:17:40;;;;;;;2.57;2.37;;;15.80;99.90;;;;;;4994453;28;20197;-80
2023/05/10 12:20:15;;;;;;;4.07;2.53;;;15.90;99.90;;;;;;4976273;28;20206;-80
2023/05/10 12:22:42;;;;;;;2.40;2.30;;;16.00;99.90;;;;;;4997088;28;20250;-81
2023/05/10 12:25:10;;;;;;;2.90;2.50;;;16.10;99.90;;;;;;4994282;28;20197;-80
2023/05/10 12:27:37;;;;;;;6.77;6.40;;;16.10;99.90;;;;;;4990312;28;20258;-80
2023/05/10 12:30:07;;;;;;;2.67;2.50;;;16.10;99.90;;;;;;4986650;28;20287;-79
2023/05/10 12:32:41;;;;;;;6.67;6.07;;;16.20;99.90;;;;;;4994920;28;20238;-78
2023/05/10 12:35:09;;;;;;;2.60;2.40;;;16.40;99.90;;;;;;4993670;28;20253;-79
2023/05/10 12:37:38;;;;;;;4.13;3.20;;;16.60;99.90;;;;;;4994391;28;20193;-79
2023/05/10 12:40:09;;;;;;;3.90;3.47;;;16.70;99.90;;;;;;4993670;28;20285;-79
2023/05/10 12:42:36;;;;;;;4.73;4.43;;;17.00;99.90;;;;;;4988602;28;20205;-78
2023/05/10 12:45:05;;;;;;;2.50;2.30;;;17.10;99.90;;;;;;4992586;28;20197;-78
2023/05/10 12:47:32;;;;;;;4.50;4.13;;;17.20;99.90;;;;;;4986675;28;20208;-80
2023/05/10 12:50:00;;;;;;;7.20;6.80;;;17.30;99.90;;;;;;4994261;28;20198;-80
2023/05/10 12:52:27;;;;;;;7.30;6.80;;;17.40;99.90;;;;;;4986857;28;20198;-78
2023/05/10 12:54:54;;;;;;;4.27;3.97;;;17.60;99.90;;;;;;4994395;28;20224;-76